sensor_id;sensor_type;location;lat;lon;timestamp;pressure;altitude;pressure_sealevel;temperature;humidity
63691;BME280;49837;57.280;27.070;2023-01-26T00:00:40;100577.58;;;-0.41;100.0
63691;BME280;49837;57.280;27.070;2023-01-26T00:01:41;100572.41;;;-0.38;100.0
63691;BME280;49837;57.280;27.070;2023-01-26T00:02:41;100575.64;;;-0.36;100.0
63691;BME280;49837;57.280;27.070;2023-01-26T00:03:41;100576.22;;;-0.38;100.0
63691;BME280;49837;57.280;27.070;2023-01-26T00:04:42;100575.47;;;-0.36;100.0
63691;BME280;49837;57.280;27.070;2023-01-26T00:05:42;100579.98;;;-0.35;100.0
63691;BME280;49837;57.280;27.070;2023-01-26T00:06:42;100582.16;;;-0.34;100.0
63691;BME280;49837;57.280;27.070;2023-01-26T00:07:43;100580.87;;;-0.32;100.0
63691;BME280;49837;57.280;27.070;2023-01-26T00:08:45;100578.81;;;-0.32;100.0
63691;BME280;49837;57.280;27.070;2023-01-26T00:09:43;100577.47;;;-0.35;100.0
63691;BME280;49837;57.280;27.070;2023-01-26T00:10:44;100573.27;;;-0.31;100.0
63691;BME280;49837;57.280;27.070;2023-01-26T00:11:44;100579.05;;;-0.34;100.0
63691;BME280;49837;57.280;27.070;2023-01-26T00:12:44;100578.41;;;-0.32;100.0
63691;BME280;49837;57.280;27.070;2023-01-26T00:13:45;100583.12;;;-0.34;100.0
63691;BME280;49837;57.280;27.070;2023-01-26T00:14:45;100582.61;;;-0.32;100.0
63691;BME280;49837;57.280;27.070;2023-01-26T00:15:45;100580.38;;;-0.32;100.0
63691;BME280;49837;57.280;27.070;2023-01-26T00:16:46;100582.77;;;-0.31;100.0
63691;BME280;49837;57.280;27.070;2023-01-26T00:17:46;100576.64;;;-0.34;100.0
63691;BME280;49837;57.280;27.070;2023-01-26T00:18:46;100576.33;;;-0.38;100.0
63691;BME280;49837;57.280;27.070;2023-01-26T00:19:47;100583.31;;;-0.34;100.0
63691;BME280;49837;57.280;27.070;2023-01-26T00:20:47;100578.88;;;-0.33;100.0
63691;BME280;49837;57.280;27.070;2023-01-26T00:21:47;100575.73;;;-0.38;100.0
63691;BME280;49837;57.280;27.070;2023-01-26T00:22:48;100573.88;;;-0.38;100.0
63691;BME280;49837;57.280;27.070;2023-01-26T00:23:48;100572.67;;;-0.37;100.0
63691;BME280;49837;57.280;27.070;2023-01-26T00:24:48;100572.02;;;-0.37;100.0
63691;BME280;49837;57.280;27.070;2023-01-26T00:25:49;100574.77;;;-0.42;100.0
63691;BME280;49837;57.280;27.070;2023-01-26T00:26:49;100577.14;;;-0.42;100.0
63691;BME280;49837;57.280;27.070;2023-01-26T00:27:50;100575.9;;;-0.39;100.0
63691;BME280;49837;57.280;27.070;2023-01-26T00:28:50;100582.03;;;-0.36;100.0
63691;BME280;49837;57.280;27.070;2023-01-26T00:29:50;100575.0;;;-0.39;100.0
63691;BME280;49837;57.280;27.070;2023-01-26T00:30:51;100578.26;;;-0.35;100.0
63691;BME280;49837;57.280;27.070;2023-01-26T00:31:51;100577.98;;;-0.4;100.0
63691;BME280;49837;57.280;27.070;2023-01-26T00:32:51;100581.61;;;-0.4;100.0
63691;BME280;49837;57.280;27.070;2023-01-26T00:33:53;100584.85;;;-0.38;100.0
63691;BME280;49837;57.280;27.070;2023-01-26T00:34:52;100583.84;;;-0.39;100.0
63691;BME280;49837;57.280;27.070;2023-01-26T00:35:55;100582.98;;;-0.41;100.0
63691;BME280;49837;57.280;27.070;2023-01-26T00:36:53;100587.17;;;-0.37;100.0
63691;BME280;49837;57.280;27.070;2023-01-26T00:37:53;100591.68;;;-0.37;100.0
63691;BME280;49837;57.280;27.070;2023-01-26T00:38:54;100588.38;;;-0.38;100.0
63691;BME280;49837;57.280;27.070;2023-01-26T00:39:54;100591.67;;;-0.36;100.0
63691;BME280;49837;57.280;27.070;2023-01-26T00:40:54;100595.28;;;-0.41;100.0
63691;BME280;49837;57.280;27.070;2023-01-26T00:41:55;100592.67;;;-0.4;100.0
63691;BME280;49837;57.280;27.070;2023-01-26T00:42:55;100597.31;;;-0.38;100.0
63691;BME280;49837;57.280;27.070;2023-01-26T00:43:55;100593.52;;;-0.39;100.0
63691;BME280;49837;57.280;27.070;2023-01-26T00:44:56;100594.63;;;-0.37;100.0
63691;BME280;49837;57.280;27.070;2023-01-26T00:45:56;100592.66;;;-0.36;100.0
63691;BME280;49837;57.280;27.070;2023-01-26T00:46:57;100587.88;;;-0.37;100.0
63691;BME280;49837;57.280;27.070;2023-01-26T00:47:57;100590.62;;;-0.4;100.0
63691;BME280;49837;57.280;27.070;2023-01-26T00:48:57;100587.59;;;-0.4;100.0
63691;BME280;49837;57.280;27.070;2023-01-26T00:49:57;100587.87;;;-0.39;100.0
63691;BME280;49837;57.280;27.070;2023-01-26T00:50:58;100588.42;;;-0.36;100.0
63691;BME280;49837;57.280;27.070;2023-01-26T00:51:58;100587.11;;;-0.36;100.0
63691;BME280;49837;57.280;27.070;2023-01-26T00:52:59;100588.22;;;-0.38;100.0
63691;BME280;49837;57.280;27.070;2023-01-26T00:53:59;100590.78;;;-0.37;100.0
63691;BME280;49837;57.280;27.070;2023-01-26T00:54:59;100587.84;;;-0.4;100.0
63691;BME280;49837;57.280;27.070;2023-01-26T00:55:59;100591.84;;;-0.41;100.0
63691;BME280;49837;57.280;27.070;2023-01-26T00:57:00;100594.28;;;-0.45;100.0
63691;BME280;49837;57.280;27.070;2023-01-26T00:58:01;100589.64;;;-0.44;100.0
63691;BME280;49837;57.280;27.070;2023-01-26T00:59:00;100591.7;;;-0.4;100.0
63691;BME280;49837;57.280;27.070;2023-01-26T01:00:01;100589.17;;;-0.38;100.0
63691;BME280;49837;57.280;27.070;2023-01-26T01:01:01;100585.82;;;-0.39;100.0
63691;BME280;49837;57.280;27.070;2023-01-26T01:02:02;100589.84;;;-0.42;100.0
63691;BME280;49837;57.280;27.070;2023-01-26T01:03:02;100590.34;;;-0.42;100.0
63691;BME280;49837;57.280;27.070;2023-01-26T01:04:02;100581.38;;;-0.43;100.0
63691;BME280;49837;57.280;27.070;2023-01-26T01:05:03;100585.16;;;-0.46;100.0
63691;BME280;49837;57.280;27.070;2023-01-26T01:06:03;100584.94;;;-0.45;100.0
63691;BME280;49837;57.280;27.070;2023-01-26T01:07:03;100579.61;;;-0.5;100.0
63691;BME280;49837;57.280;27.070;2023-01-26T01:08:04;100577.37;;;-0.5;100.0
63691;BME280;49837;57.280;27.070;2023-01-26T01:09:04;100578.12;;;-0.46;100.0
63691;BME280;49837;57.280;27.070;2023-01-26T01:10:05;100576.8;;;-0.46;100.0
63691;BME280;49837;57.280;27.070;2023-01-26T01:11:08;100571.23;;;-0.46;100.0
63691;BME280;49837;57.280;27.070;2023-01-26T01:12:06;100571.98;;;-0.49;100.0
63691;BME280;49837;57.280;27.070;2023-01-26T01:13:06;100572.42;;;-0.51;100.0
63691;BME280;49837;57.280;27.070;2023-01-26T01:14:07;100570.66;;;-0.46;100.0
63691;BME280;49837;57.280;27.070;2023-01-26T01:15:07;100573.34;;;-0.47;100.0
63691;BME280;49837;57.280;27.070;2023-01-26T01:16:12;100571.77;;;-0.44;100.0
63691;BME280;49837;57.280;27.070;2023-01-26T01:17:11;100575.05;;;-0.44;100.0
63691;BME280;49837;57.280;27.070;2023-01-26T01:18:11;100574.3;;;-0.48;100.0
63691;BME280;49837;57.280;27.070;2023-01-26T01:19:15;100572.2;;;-0.48;100.0
63691;BME280;49837;57.280;27.070;2023-01-26T01:20:15;100570.27;;;-0.49;100.0
63691;BME280;49837;57.280;27.070;2023-01-26T01:21:16;100570.53;;;-0.48;100.0
63691;BME280;49837;57.280;27.070;2023-01-26T01:22:15;100568.36;;;-0.5;100.0
63691;BME280;49837;57.280;27.070;2023-01-26T01:23:15;100570.48;;;-0.5;100.0
63691;BME280;49837;57.280;27.070;2023-01-26T01:24:15;100567.25;;;-0.52;100.0
63691;BME280;49837;57.280;27.070;2023-01-26T01:25:16;100574.48;;;-0.52;100.0
63691;BME280;49837;57.280;27.070;2023-01-26T01:26:16;100571.78;;;-0.52;100.0
63691;BME280;49837;57.280;27.070;2023-01-26T01:27:17;100569.48;;;-0.51;100.0
63691;BME280;49837;57.280;27.070;2023-01-26T01:28:17;100570.06;;;-0.52;100.0
63691;BME280;49837;57.280;27.070;2023-01-26T01:29:17;100562.5;;;-0.48;100.0
63691;BME280;49837;57.280;27.070;2023-01-26T01:30:18;100560.81;;;-0.48;100.0
63691;BME280;49837;57.280;27.070;2023-01-26T01:31:18;100557.45;;;-0.55;100.0
63691;BME280;49837;57.280;27.070;2023-01-26T01:32:19;100559.27;;;-0.51;100.0
63691;BME280;49837;57.280;27.070;2023-01-26T01:33:19;100558.49;;;-0.56;100.0
63691;BME280;49837;57.280;27.070;2023-01-26T01:34:19;100556.25;;;-0.54;100.0
63691;BME280;49837;57.280;27.070;2023-01-26T01:35:19;100559.17;;;-0.54;100.0
63691;BME280;49837;57.280;27.070;2023-01-26T01:36:20;100560.69;;;-0.52;100.0
63691;BME280;49837;57.280;27.070;2023-01-26T01:37:20;100562.41;;;-0.52;100.0
63691;BME280;49837;57.280;27.070;2023-01-26T01:38:20;100562.81;;;-0.57;100.0
63691;BME280;49837;57.280;27.070;2023-01-26T01:39:21;100557.06;;;-0.58;100.0
63691;BME280;49837;57.280;27.070;2023-01-26T01:40:21;100558.05;;;-0.61;100.0
63691;BME280;49837;57.280;27.070;2023-01-26T01:41:22;100559.02;;;-0.58;100.0
63691;BME280;49837;57.280;27.070;2023-01-26T01:42:22;100553.67;;;-0.59;100.0
63691;BME280;49837;57.280;27.070;2023-01-26T01:43:23;100551.7;;;-0.59;100.0
63691;BME280;49837;57.280;27.070;2023-01-26T01:44:24;100548.48;;;-0.57;100.0
63691;BME280;49837;57.280;27.070;2023-01-26T01:47:27;100538.78;;;-0.58;100.0
63691;BME280;49837;57.280;27.070;2023-01-26T01:48:44;100537.03;;;-0.56;100.0
63691;BME280;49837;57.280;27.070;2023-01-26T01:49:41;100538.48;;;-0.57;100.0
63691;BME280;49837;57.280;27.070;2023-01-26T01:50:38;100536.08;;;-0.58;100.0
63691;BME280;49837;57.280;27.070;2023-01-26T01:52:34;100530.64;;;-0.56;100.0
63691;BME280;49837;57.280;27.070;2023-01-26T01:53:37;100533.0;;;-0.6;100.0
63691;BME280;49837;57.280;27.070;2023-01-26T01:55:38;100529.45;;;-0.65;100.0
63691;BME280;49837;57.280;27.070;2023-01-26T01:56:42;100531.01;;;-0.65;100.0
63691;BME280;49837;57.280;27.070;2023-01-26T01:58:45;100535.34;;;-0.62;100.0
63691;BME280;49837;57.280;27.070;2023-01-26T01:59:48;100533.51;;;-0.63;100.0
63691;BME280;49837;57.280;27.070;2023-01-26T02:00:49;100537.75;;;-0.64;100.0
63691;BME280;49837;57.280;27.070;2023-01-26T02:01:51;100537.81;;;-0.61;100.0
63691;BME280;49837;57.280;27.070;2023-01-26T02:03:03;100535.88;;;-0.6;100.0
63691;BME280;49837;57.280;27.070;2023-01-26T02:03:56;100540.08;;;-0.59;100.0
63691;BME280;49837;57.280;27.070;2023-01-26T02:05:00;100538.31;;;-0.61;100.0
63691;BME280;49837;57.280;27.070;2023-01-26T02:06:13;100539.84;;;-0.62;100.0
63691;BME280;49837;57.280;27.070;2023-01-26T02:07:02;100540.06;;;-0.56;100.0
63691;BME280;49837;57.280;27.070;2023-01-26T02:08:02;100540.22;;;-0.6;100.0
63691;BME280;49837;57.280;27.070;2023-01-26T02:09:03;100541.22;;;-0.63;100.0
63691;BME280;49837;57.280;27.070;2023-01-26T02:10:04;100533.58;;;-0.6;100.0
63691;BME280;49837;57.280;27.070;2023-01-26T02:11:07;100540.16;;;-0.59;100.0
63691;BME280;49837;57.280;27.070;2023-01-26T02:12:10;100541.47;;;-0.59;100.0
63691;BME280;49837;57.280;27.070;2023-01-26T02:13:10;100532.56;;;-0.65;100.0
63691;BME280;49837;57.280;27.070;2023-01-26T02:14:11;100534.88;;;-0.64;100.0
63691;BME280;49837;57.280;27.070;2023-01-26T02:15:11;100527.14;;;-0.62;100.0
63691;BME280;49837;57.280;27.070;2023-01-26T02:16:11;100521.47;;;-0.63;100.0
63691;BME280;49837;57.280;27.070;2023-01-26T02:17:11;100516.78;;;-0.6;100.0
63691;BME280;49837;57.280;27.070;2023-01-26T02:18:12;100521.12;;;-0.6;100.0
63691;BME280;49837;57.280;27.070;2023-01-26T02:19:31;100512.61;;;-0.63;100.0
63691;BME280;49837;57.280;27.070;2023-01-26T02:21:22;100513.17;;;-0.64;100.0
63691;BME280;49837;57.280;27.070;2023-01-26T02:23:30;100506.33;;;-0.67;100.0
63691;BME280;49837;57.280;27.070;2023-01-26T02:24:32;100503.06;;;-0.65;100.0
63691;BME280;49837;57.280;27.070;2023-01-26T02:26:31;100498.47;;;-0.67;100.0
63691;BME280;49837;57.280;27.070;2023-01-26T02:27:29;100496.62;;;-0.69;100.0
63691;BME280;49837;57.280;27.070;2023-01-26T02:28:30;100496.06;;;-0.67;100.0
63691;BME280;49837;57.280;27.070;2023-01-26T02:29:30;100494.79;;;-0.69;100.0
63691;BME280;49837;57.280;27.070;2023-01-26T02:30:31;100493.13;;;-0.66;100.0
63691;BME280;49837;57.280;27.070;2023-01-26T02:31:31;100495.06;;;-0.64;100.0
63691;BME280;49837;57.280;27.070;2023-01-26T02:32:31;100492.28;;;-0.64;100.0
63691;BME280;49837;57.280;27.070;2023-01-26T02:33:32;100490.52;;;-0.66;100.0
63691;BME280;49837;57.280;27.070;2023-01-26T02:34:32;100492.89;;;-0.67;100.0
63691;BME280;49837;57.280;27.070;2023-01-26T02:35:32;100491.27;;;-0.69;100.0
63691;BME280;49837;57.280;27.070;2023-01-26T02:36:33;100489.16;;;-0.66;100.0
63691;BME280;49837;57.280;27.070;2023-01-26T02:37:33;100484.47;;;-0.65;100.0
63691;BME280;49837;57.280;27.070;2023-01-26T02:40:47;100493.77;;;-0.72;100.0
63691;BME280;49837;57.280;27.070;2023-01-26T02:41:42;100492.56;;;-0.71;100.0
63691;BME280;49837;57.280;27.070;2023-01-26T02:42:42;100492.95;;;-0.71;100.0
63691;BME280;49837;57.280;27.070;2023-01-26T02:43:42;100493.6;;;-0.72;100.0
63691;BME280;49837;57.280;27.070;2023-01-26T02:44:43;100495.73;;;-0.71;100.0
63691;BME280;49837;57.280;27.070;2023-01-26T02:45:43;100493.68;;;-0.71;100.0
63691;BME280;49837;57.280;27.070;2023-01-26T02:46:43;100486.98;;;-0.68;100.0
63691;BME280;49837;57.280;27.070;2023-01-26T02:47:44;100479.37;;;-0.7;100.0
63691;BME280;49837;57.280;27.070;2023-01-26T02:48:44;100491.52;;;-0.7;100.0
63691;BME280;49837;57.280;27.070;2023-01-26T02:49:44;100487.17;;;-0.69;100.0
63691;BME280;49837;57.280;27.070;2023-01-26T02:50:45;100485.8;;;-0.72;100.0
63691;BME280;49837;57.280;27.070;2023-01-26T02:51:45;100484.34;;;-0.72;100.0
63691;BME280;49837;57.280;27.070;2023-01-26T02:52:45;100478.12;;;-0.71;100.0
63691;BME280;49837;57.280;27.070;2023-01-26T02:53:46;100479.59;;;-0.71;100.0
63691;BME280;49837;57.280;27.070;2023-01-26T02:54:46;100474.21;;;-0.71;100.0
63691;BME280;49837;57.280;27.070;2023-01-26T02:55:46;100478.91;;;-0.73;100.0
63691;BME280;49837;57.280;27.070;2023-01-26T02:56:47;100471.56;;;-0.71;100.0
63691;BME280;49837;57.280;27.070;2023-01-26T02:57:48;100471.28;;;-0.69;100.0
63691;BME280;49837;57.280;27.070;2023-01-26T02:58:47;100469.59;;;-0.69;100.0
63691;BME280;49837;57.280;27.070;2023-01-26T02:59:48;100467.73;;;-0.75;100.0
63691;BME280;49837;57.280;27.070;2023-01-26T03:00:48;100472.85;;;-0.72;100.0
63691;BME280;49837;57.280;27.070;2023-01-26T03:01:49;100470.05;;;-0.74;100.0
63691;BME280;49837;57.280;27.070;2023-01-26T03:02:50;100467.19;;;-0.74;100.0
63691;BME280;49837;57.280;27.070;2023-01-26T03:03:49;100473.03;;;-0.71;100.0
63691;BME280;49837;57.280;27.070;2023-01-26T03:04:49;100477.14;;;-0.72;100.0
63691;BME280;49837;57.280;27.070;2023-01-26T03:05:50;100482.98;;;-0.73;100.0
63691;BME280;49837;57.280;27.070;2023-01-26T03:06:50;100483.38;;;-0.82;100.0
63691;BME280;49837;57.280;27.070;2023-01-26T03:07:50;100486.77;;;-0.77;100.0
63691;BME280;49837;57.280;27.070;2023-01-26T03:08:51;100492.9;;;-0.73;100.0
63691;BME280;49837;57.280;27.070;2023-01-26T03:09:51;100495.08;;;-0.72;100.0
63691;BME280;49837;57.280;27.070;2023-01-26T03:10:52;100496.98;;;-0.75;100.0
63691;BME280;49837;57.280;27.070;2023-01-26T03:11:52;100493.58;;;-0.72;100.0
63691;BME280;49837;57.280;27.070;2023-01-26T03:12:52;100498.82;;;-0.73;100.0
63691;BME280;49837;57.280;27.070;2023-01-26T03:13:52;100503.72;;;-0.69;100.0
63691;BME280;49837;57.280;27.070;2023-01-26T03:14:53;100502.62;;;-0.68;100.0
63691;BME280;49837;57.280;27.070;2023-01-26T03:15:53;100504.07;;;-0.69;100.0
63691;BME280;49837;57.280;27.070;2023-01-26T03:16:53;100500.54;;;-0.73;100.0
63691;BME280;49837;57.280;27.070;2023-01-26T03:18:04;100500.36;;;-0.74;100.0
63691;BME280;49837;57.280;27.070;2023-01-26T03:18:57;100496.43;;;-0.7;100.0
63691;BME280;49837;57.280;27.070;2023-01-26T03:19:57;100492.86;;;-0.72;100.0
63691;BME280;49837;57.280;27.070;2023-01-26T03:20:59;100489.06;;;-0.69;100.0
63691;BME280;49837;57.280;27.070;2023-01-26T03:21:58;100490.55;;;-0.68;100.0
63691;BME280;49837;57.280;27.070;2023-01-26T03:22:58;100489.19;;;-0.68;100.0
63691;BME280;49837;57.280;27.070;2023-01-26T03:23:59;100488.34;;;-0.69;100.0
63691;BME280;49837;57.280;27.070;2023-01-26T03:24:59;100485.33;;;-0.67;100.0
63691;BME280;49837;57.280;27.070;2023-01-26T03:25:59;100487.73;;;-0.71;100.0
63691;BME280;49837;57.280;27.070;2023-01-26T03:27:00;100482.46;;;-0.72;100.0
63691;BME280;49837;57.280;27.070;2023-01-26T03:28:00;100477.27;;;-0.72;100.0
63691;BME280;49837;57.280;27.070;2023-01-26T03:29:00;100473.61;;;-0.76;100.0
63691;BME280;49837;57.280;27.070;2023-01-26T03:30:01;100477.57;;;-0.78;100.0
63691;BME280;49837;57.280;27.070;2023-01-26T03:31:05;100469.47;;;-0.78;100.0
63691;BME280;49837;57.280;27.070;2023-01-26T03:32:04;100476.3;;;-0.76;100.0
63691;BME280;49837;57.280;27.070;2023-01-26T03:33:04;100472.09;;;-0.73;100.0
63691;BME280;49837;57.280;27.070;2023-01-26T03:34:04;100469.12;;;-0.75;100.0
63691;BME280;49837;57.280;27.070;2023-01-26T03:35:05;100471.33;;;-0.75;100.0
63691;BME280;49837;57.280;27.070;2023-01-26T03:36:05;100473.59;;;-0.72;100.0
63691;BME280;49837;57.280;27.070;2023-01-26T03:37:05;100475.55;;;-0.77;100.0
63691;BME280;49837;57.280;27.070;2023-01-26T03:38:05;100475.25;;;-0.76;100.0
63691;BME280;49837;57.280;27.070;2023-01-26T03:39:06;100471.25;;;-0.75;100.0
63691;BME280;49837;57.280;27.070;2023-01-26T03:40:10;100467.73;;;-0.74;100.0
63691;BME280;49837;57.280;27.070;2023-01-26T03:41:09;100472.3;;;-0.71;100.0
63691;BME280;49837;57.280;27.070;2023-01-26T03:42:09;100469.39;;;-0.74;100.0
63691;BME280;49837;57.280;27.070;2023-01-26T03:43:09;100473.52;;;-0.76;100.0
63691;BME280;49837;57.280;27.070;2023-01-26T03:44:10;100470.2;;;-0.78;100.0
63691;BME280;49837;57.280;27.070;2023-01-26T03:45:10;100468.91;;;-0.77;100.0
63691;BME280;49837;57.280;27.070;2023-01-26T03:46:10;100467.2;;;-0.72;100.0
63691;BME280;49837;57.280;27.070;2023-01-26T03:47:11;100464.95;;;-0.7;100.0
63691;BME280;49837;57.280;27.070;2023-01-26T03:48:12;100463.59;;;-0.72;100.0
63691;BME280;49837;57.280;27.070;2023-01-26T03:49:11;100462.95;;;-0.76;100.0
63691;BME280;49837;57.280;27.070;2023-01-26T03:50:12;100466.2;;;-0.73;100.0
63691;BME280;49837;57.280;27.070;2023-01-26T03:51:12;100460.45;;;-0.78;100.0
63691;BME280;49837;57.280;27.070;2023-01-26T03:52:12;100458.38;;;-0.76;100.0
63691;BME280;49837;57.280;27.070;2023-01-26T03:53:18;100461.71;;;-0.72;100.0
63691;BME280;49837;57.280;27.070;2023-01-26T03:54:16;100456.0;;;-0.76;100.0
63691;BME280;49837;57.280;27.070;2023-01-26T03:55:17;100454.77;;;-0.76;100.0
63691;BME280;49837;57.280;27.070;2023-01-26T03:56:17;100458.7;;;-0.75;100.0
63691;BME280;49837;57.280;27.070;2023-01-26T03:57:17;100453.88;;;-0.76;100.0
63691;BME280;49837;57.280;27.070;2023-01-26T03:58:18;100452.89;;;-0.72;100.0
63691;BME280;49837;57.280;27.070;2023-01-26T03:59:18;100454.47;;;-0.71;100.0
63691;BME280;49837;57.280;27.070;2023-01-26T04:00:19;100458.09;;;-0.74;100.0
63691;BME280;49837;57.280;27.070;2023-01-26T04:01:23;100452.2;;;-0.77;100.0
63691;BME280;49837;57.280;27.070;2023-01-26T04:02:21;100454.14;;;-0.75;100.0
63691;BME280;49837;57.280;27.070;2023-01-26T04:03:22;100449.64;;;-0.78;100.0
63691;BME280;49837;57.280;27.070;2023-01-26T04:04:22;100455.23;;;-0.74;100.0
63691;BME280;49837;57.280;27.070;2023-01-26T04:05:22;100453.42;;;-0.75;100.0
63691;BME280;49837;57.280;27.070;2023-01-26T04:06:23;100453.84;;;-0.72;100.0
63691;BME280;49837;57.280;27.070;2023-01-26T04:07:23;100454.83;;;-0.77;100.0
63691;BME280;49837;57.280;27.070;2023-01-26T04:08:23;100449.03;;;-0.8;100.0
63691;BME280;49837;57.280;27.070;2023-01-26T04:09:24;100455.18;;;-0.76;100.0
63691;BME280;49837;57.280;27.070;2023-01-26T04:10:25;100455.11;;;-0.74;100.0
63691;BME280;49837;57.280;27.070;2023-01-26T04:11:24;100449.34;;;-0.77;100.0
63691;BME280;49837;57.280;27.070;2023-01-26T04:12:25;100459.17;;;-0.77;100.0
63691;BME280;49837;57.280;27.070;2023-01-26T04:13:25;100458.27;;;-0.77;100.0
63691;BME280;49837;57.280;27.070;2023-01-26T04:14:25;100460.14;;;-0.78;100.0
63691;BME280;49837;57.280;27.070;2023-01-26T04:15:26;100463.66;;;-0.74;100.0
63691;BME280;49837;57.280;27.070;2023-01-26T04:16:26;100459.2;;;-0.72;100.0
63691;BME280;49837;57.280;27.070;2023-01-26T04:17:26;100460.38;;;-0.78;100.0
63691;BME280;49837;57.280;27.070;2023-01-26T04:18:27;100458.45;;;-0.8;100.0
63691;BME280;49837;57.280;27.070;2023-01-26T04:19:27;100462.94;;;-0.77;100.0
63691;BME280;49837;57.280;27.070;2023-01-26T04:20:27;100460.42;;;-0.76;100.0
63691;BME280;49837;57.280;27.070;2023-01-26T04:21:28;100462.73;;;-0.75;100.0
63691;BME280;49837;57.280;27.070;2023-01-26T04:22:28;100459.84;;;-0.76;100.0
63691;BME280;49837;57.280;27.070;2023-01-26T04:23:28;100466.02;;;-0.75;100.0
63691;BME280;49837;57.280;27.070;2023-01-26T04:24:29;100466.46;;;-0.72;100.0
63691;BME280;49837;57.280;27.070;2023-01-26T04:25:29;100466.94;;;-0.74;100.0
63691;BME280;49837;57.280;27.070;2023-01-26T04:26:30;100466.7;;;-0.77;100.0
63691;BME280;49837;57.280;27.070;2023-01-26T04:27:30;100467.23;;;-0.79;100.0
63691;BME280;49837;57.280;27.070;2023-01-26T04:28:30;100469.31;;;-0.73;100.0
63691;BME280;49837;57.280;27.070;2023-01-26T04:29:31;100466.53;;;-0.74;100.0
63691;BME280;49837;57.280;27.070;2023-01-26T04:30:31;100464.44;;;-0.76;100.0
63691;BME280;49837;57.280;27.070;2023-01-26T04:31:31;100462.5;;;-0.82;100.0
63691;BME280;49837;57.280;27.070;2023-01-26T04:32:31;100464.46;;;-0.82;100.0
63691;BME280;49837;57.280;27.070;2023-01-26T04:33:32;100467.7;;;-0.8;100.0
63691;BME280;49837;57.280;27.070;2023-01-26T04:34:32;100463.66;;;-0.85;100.0
63691;BME280;49837;57.280;27.070;2023-01-26T04:35:32;100459.8;;;-0.82;100.0
63691;BME280;49837;57.280;27.070;2023-01-26T04:36:33;100458.42;;;-0.81;100.0
63691;BME280;49837;57.280;27.070;2023-01-26T04:37:34;100455.21;;;-0.82;100.0
63691;BME280;49837;57.280;27.070;2023-01-26T04:38:33;100456.14;;;-0.82;100.0
63691;BME280;49837;57.280;27.070;2023-01-26T04:39:34;100458.62;;;-0.76;100.0
63691;BME280;49837;57.280;27.070;2023-01-26T04:40:34;100458.06;;;-0.79;100.0
63691;BME280;49837;57.280;27.070;2023-01-26T04:41:34;100456.45;;;-0.81;100.0
63691;BME280;49837;57.280;27.070;2023-01-26T04:42:35;100457.09;;;-0.83;100.0
63691;BME280;49837;57.280;27.070;2023-01-26T04:43:35;100456.41;;;-0.87;100.0
63691;BME280;49837;57.280;27.070;2023-01-26T04:44:35;100455.98;;;-0.84;100.0
63691;BME280;49837;57.280;27.070;2023-01-26T04:45:36;100455.34;;;-0.83;100.0
63691;BME280;49837;57.280;27.070;2023-01-26T04:46:36;100454.28;;;-0.83;100.0
63691;BME280;49837;57.280;27.070;2023-01-26T04:47:37;100452.08;;;-0.83;100.0
63691;BME280;49837;57.280;27.070;2023-01-26T04:48:37;100449.87;;;-0.84;100.0
63691;BME280;49837;57.280;27.070;2023-01-26T04:49:37;100454.69;;;-0.83;100.0
63691;BME280;49837;57.280;27.070;2023-01-26T04:50:38;100448.51;;;-0.85;100.0
63691;BME280;49837;57.280;27.070;2023-01-26T04:51:38;100447.23;;;-0.87;100.0
63691;BME280;49837;57.280;27.070;2023-01-26T04:52:38;100452.88;;;-0.8;100.0
63691;BME280;49837;57.280;27.070;2023-01-26T04:53:39;100449.52;;;-0.8;100.0
63691;BME280;49837;57.280;27.070;2023-01-26T04:54:39;100450.78;;;-0.87;100.0
63691;BME280;49837;57.280;27.070;2023-01-26T04:55:39;100445.78;;;-0.86;100.0
63691;BME280;49837;57.280;27.070;2023-01-26T04:56:39;100449.7;;;-0.84;100.0
63691;BME280;49837;57.280;27.070;2023-01-26T04:57:40;100442.96;;;-0.89;100.0
63691;BME280;49837;57.280;27.070;2023-01-26T04:58:40;100443.08;;;-0.86;100.0
63691;BME280;49837;57.280;27.070;2023-01-26T04:59:41;100443.95;;;-0.88;100.0
63691;BME280;49837;57.280;27.070;2023-01-26T05:00:41;100442.62;;;-0.86;100.0
63691;BME280;49837;57.280;27.070;2023-01-26T05:01:41;100443.11;;;-0.81;100.0
63691;BME280;49837;57.280;27.070;2023-01-26T05:02:42;100445.16;;;-0.85;100.0
63691;BME280;49837;57.280;27.070;2023-01-26T05:03:42;100444.98;;;-0.83;100.0
63691;BME280;49837;57.280;27.070;2023-01-26T05:04:42;100441.56;;;-0.84;100.0
63691;BME280;49837;57.280;27.070;2023-01-26T05:05:43;100436.03;;;-0.83;100.0
63691;BME280;49837;57.280;27.070;2023-01-26T05:06:43;100432.91;;;-0.87;100.0
63691;BME280;49837;57.280;27.070;2023-01-26T05:07:43;100437.64;;;-0.84;100.0
63691;BME280;49837;57.280;27.070;2023-01-26T05:08:44;100437.92;;;-0.91;100.0
63691;BME280;49837;57.280;27.070;2023-01-26T05:09:44;100438.47;;;-0.92;100.0
63691;BME280;49837;57.280;27.070;2023-01-26T05:10:45;100433.5;;;-0.91;100.0
63691;BME280;49837;57.280;27.070;2023-01-26T05:11:45;100434.3;;;-0.92;100.0
63691;BME280;49837;57.280;27.070;2023-01-26T05:12:45;100438.32;;;-0.95;100.0
63691;BME280;49837;57.280;27.070;2023-01-26T05:13:46;100438.2;;;-0.93;100.0
63691;BME280;49837;57.280;27.070;2023-01-26T05:14:46;100438.45;;;-0.93;100.0
63691;BME280;49837;57.280;27.070;2023-01-26T05:15:46;100440.66;;;-0.93;100.0
63691;BME280;49837;57.280;27.070;2023-01-26T05:16:46;100443.23;;;-0.91;100.0
63691;BME280;49837;57.280;27.070;2023-01-26T05:17:47;100445.39;;;-0.9;100.0
63691;BME280;49837;57.280;27.070;2023-01-26T05:18:47;100444.28;;;-0.91;100.0
63691;BME280;49837;57.280;27.070;2023-01-26T05:19:47;100449.78;;;-0.95;100.0
63691;BME280;49837;57.280;27.070;2023-01-26T05:20:48;100447.41;;;-0.95;100.0
63691;BME280;49837;57.280;27.070;2023-01-26T05:21:48;100449.07;;;-0.94;100.0
63691;BME280;49837;57.280;27.070;2023-01-26T05:22:48;100454.66;;;-0.93;100.0
63691;BME280;49837;57.280;27.070;2023-01-26T05:23:49;100445.42;;;-0.96;100.0